createdAt,value
2018-08-25T00:00:06.708Z,19.50
2018-08-25T00:00:28.473Z,19.48
2018-08-25T00:00:50.448Z,19.47
2018-08-25T00:01:12.249Z,19.47
2018-08-25T00:01:34.003Z,19.46
2018-08-25T00:01:55.779Z,19.47
2018-08-25T00:02:17.548Z,19.44
2018-08-25T00:02:39.315Z,19.44
2018-08-25T00:03:01.088Z,19.41
2018-08-25T00:03:22.867Z,19.40
2018-08-25T00:03:44.706Z,19.43
2018-08-25T00:04:06.498Z,19.47
2018-08-25T00:04:28.269Z,19.45
2018-08-25T00:04:50.022Z,19.47
2018-08-25T00:05:11.816Z,19.44
2018-08-25T00:05:33.581Z,19.42
2018-08-25T00:05:55.372Z,19.44
2018-08-25T00:06:17.141Z,19.45
2018-08-25T00:06:38.928Z,19.47
2018-08-25T00:07:00.688Z,19.47
2018-08-25T00:07:22.475Z,19.49
2018-08-25T00:07:44.233Z,19.48
2018-08-25T00:08:06.019Z,19.45
2018-08-25T00:08:27.778Z,19.44
2018-08-25T00:08:49.591Z,19.47
2018-08-25T00:09:12.118Z,19.46
2018-08-25T00:09:33.880Z,19.45
2018-08-25T00:09:55.638Z,19.46
2018-08-25T00:10:17.506Z,19.47
2018-08-25T00:10:39.263Z,19.45
2018-08-25T00:11:01.023Z,19.46
2018-08-25T00:11:22.780Z,19.46
2018-08-25T00:11:44.559Z,19.47
2018-08-25T00:12:06.327Z,19.46
2018-08-25T00:12:28.100Z,19.48
2018-08-25T00:12:49.896Z,19.50
2018-08-25T00:13:11.675Z,19.49
2018-08-25T00:13:33.442Z,19.47
2018-08-25T00:13:55.208Z,19.50
2018-08-25T00:14:16.994Z,19.47
2018-08-25T00:14:38.751Z,19.49
2018-08-25T00:15:00.511Z,19.50
2018-08-25T00:15:22.297Z,19.48
2018-08-25T00:15:44.058Z,19.49
2018-08-25T00:16:05.811Z,19.47
2018-08-25T00:16:27.581Z,19.47
2018-08-25T00:16:49.340Z,19.46
2018-08-25T00:17:11.114Z,19.46
2018-08-25T00:17:32.888Z,19.46
2018-08-25T00:17:54.661Z,19.45
2018-08-25T00:18:16.476Z,19.45
2018-08-25T00:18:38.258Z,19.49
2018-08-25T00:19:00.028Z,19.46
2018-08-25T00:19:21.806Z,19.45
2018-08-25T00:19:43.575Z,19.43
2018-08-25T00:20:05.531Z,19.43
2018-08-25T00:20:27.322Z,19.41
2018-08-25T00:20:49.084Z,19.42
2018-08-25T00:21:10.943Z,19.43
2018-08-25T00:21:32.709Z,19.41
2018-08-25T00:21:54.490Z,19.41
2018-08-25T00:22:16.274Z,19.43
2018-08-25T00:22:38.045Z,19.41
2018-08-25T00:22:59.824Z,19.41
2018-08-25T00:23:21.606Z,19.39
2018-08-25T00:23:43.372Z,19.40
2018-08-25T00:24:05.143Z,19.40
2018-08-25T00:24:26.936Z,19.43
2018-08-25T00:24:48.703Z,19.44
2018-08-25T00:25:10.485Z,19.44
2018-08-25T00:25:32.296Z,19.43
2018-08-25T00:25:54.063Z,19.42
2018-08-25T00:26:15.821Z,19.43
2018-08-25T00:26:37.596Z,19.44
2018-08-25T00:26:59.445Z,19.45
2018-08-25T00:27:21.219Z,19.45
2018-08-25T00:27:42.994Z,19.45
2018-08-25T00:28:04.802Z,19.45
2018-08-25T00:28:26.622Z,19.44
2018-08-25T00:28:48.394Z,19.44
2018-08-25T00:29:10.173Z,19.45
2018-08-25T00:29:31.930Z,19.45
2018-08-25T00:29:53.706Z,19.44
2018-08-25T00:30:20.868Z,19.48
2018-08-25T00:30:48.131Z,19.45
2018-08-25T00:31:15.221Z,19.43
2018-08-25T00:31:36.978Z,19.43
2018-08-25T00:31:58.788Z,19.43
2018-08-25T00:32:20.562Z,19.43
2018-08-25T00:32:42.334Z,19.40
2018-08-25T00:33:04.095Z,19.38
2018-08-25T00:33:25.868Z,19.41
2018-08-25T00:33:47.626Z,19.40
2018-08-25T00:34:09.394Z,19.43
2018-08-25T00:34:31.171Z,19.41
2018-08-25T00:34:52.940Z,19.42
2018-08-25T00:35:14.720Z,19.44
2018-08-25T00:35:36.533Z,19.46
2018-08-25T00:35:58.330Z,19.44
2018-08-25T00:36:20.116Z,19.43
2018-08-25T00:36:41.897Z,19.44
2018-08-25T00:37:03.675Z,19.42
2018-08-25T00:37:25.457Z,19.42
2018-08-25T00:37:47.215Z,19.41
2018-08-25T00:38:08.975Z,19.40
2018-08-25T00:38:30.742Z,19.39
2018-08-25T00:38:52.556Z,19.40
2018-08-25T00:39:14.340Z,19.39
2018-08-25T00:39:36.114Z,19.40
2018-08-25T00:39:57.892Z,19.40
2018-08-25T00:40:19.687Z,19.41
2018-08-25T00:40:41.468Z,19.39
2018-08-25T00:41:03.326Z,19.40
2018-08-25T00:41:25.106Z,19.44
2018-08-25T00:41:47.022Z,19.39
2018-08-25T00:42:08.774Z,19.39
2018-08-25T00:42:30.543Z,19.38
2018-08-25T00:42:52.305Z,19.38
2018-08-25T00:43:14.079Z,19.36
2018-08-25T00:43:35.843Z,19.36
2018-08-25T00:43:57.611Z,19.36
2018-08-25T00:44:19.397Z,19.39
2018-08-25T00:44:41.167Z,19.37
2018-08-25T00:45:02.945Z,19.37
2018-08-25T00:45:24.705Z,19.37
2018-08-25T00:45:46.462Z,19.36
2018-08-25T00:46:08.262Z,19.36
2018-08-25T00:46:30.018Z,19.37
2018-08-25T00:46:51.829Z,19.39
2018-08-25T00:47:13.626Z,19.38
2018-08-25T00:47:35.399Z,19.40
2018-08-25T00:47:57.168Z,19.38
2018-08-25T00:48:18.955Z,19.38
2018-08-25T00:48:40.722Z,19.38
2018-08-25T00:49:02.667Z,19.37
2018-08-25T00:49:24.447Z,19.38
2018-08-25T00:49:46.254Z,19.38
2018-08-25T00:50:08.031Z,19.37
2018-08-25T00:50:29.842Z,19.38
2018-08-25T00:50:51.653Z,19.38
2018-08-25T00:51:13.531Z,19.37
2018-08-25T00:51:35.316Z,19.37
2018-08-25T00:51:57.090Z,19.37
2018-08-25T00:52:18.899Z,19.38
2018-08-25T00:52:40.711Z,19.40
2018-08-25T00:53:02.522Z,19.38
2018-08-25T00:53:24.318Z,19.37
2018-08-25T00:53:46.084Z,19.38
2018-08-25T00:54:07.854Z,19.38
2018-08-25T00:54:29.665Z,19.38
2018-08-25T00:54:51.473Z,19.38
2018-08-25T00:55:13.271Z,19.38
2018-08-25T00:55:35.036Z,19.37
2018-08-25T00:55:56.812Z,19.38
2018-08-25T00:56:18.621Z,19.38
2018-08-25T00:56:40.415Z,19.38
2018-08-25T00:57:02.175Z,19.38
2018-08-25T00:57:24.202Z,19.37
2018-08-25T00:57:46.012Z,19.38
2018-08-25T00:58:07.816Z,19.36
2018-08-25T00:58:29.587Z,19.36
2018-08-25T00:58:51.362Z,19.37
2018-08-25T00:59:13.188Z,19.35
2018-08-25T00:59:34.959Z,19.34
2018-08-25T00:59:56.731Z,19.35
2018-08-25T01:00:18.508Z,19.36
2018-08-25T01:00:40.350Z,19.35
2018-08-25T01:01:02.510Z,19.34
2018-08-25T01:01:24.322Z,19.34
2018-08-25T01:01:46.078Z,19.35
2018-08-25T01:02:07.850Z,19.36
2018-08-25T01:02:29.857Z,19.34
2018-08-25T01:02:51.641Z,19.36
2018-08-25T01:03:13.433Z,19.37
2018-08-25T01:03:35.207Z,19.37
2018-08-25T01:03:56.971Z,19.35
2018-08-25T01:04:18.731Z,19.36
2018-08-25T01:04:40.521Z,19.36
2018-08-25T01:05:02.297Z,19.36
2018-08-25T01:05:24.067Z,19.37
2018-08-25T01:05:45.853Z,19.37
2018-08-25T01:06:07.615Z,19.37
2018-08-25T01:06:29.448Z,19.37
2018-08-25T01:06:51.214Z,19.36
2018-08-25T01:07:12.967Z,19.36
2018-08-25T01:07:34.730Z,19.35
2018-08-25T01:07:56.485Z,19.35
2018-08-25T01:08:18.249Z,19.35
2018-08-25T01:08:40.023Z,19.34
2018-08-25T01:09:01.788Z,19.36
2018-08-25T01:09:23.540Z,19.36
2018-08-25T01:09:45.304Z,19.34
2018-08-25T01:10:07.076Z,19.33
2018-08-25T01:10:29.076Z,19.34
2018-08-25T01:10:50.850Z,19.34
2018-08-25T01:11:12.613Z,19.35
2018-08-25T01:11:34.425Z,19.34
2018-08-25T01:11:56.203Z,19.35
2018-08-25T01:12:17.970Z,19.36
2018-08-25T01:12:39.727Z,19.35
2018-08-25T01:13:01.494Z,19.34
2018-08-25T01:13:23.251Z,19.34
2018-08-25T01:13:45.018Z,19.34
2018-08-25T01:14:06.918Z,19.33
2018-08-25T01:14:28.668Z,19.34
2018-08-25T01:14:50.446Z,19.34
2018-08-25T01:15:12.204Z,19.35
2018-08-25T01:15:34.060Z,19.34
2018-08-25T01:15:55.826Z,19.35
2018-08-25T01:16:17.594Z,19.37
2018-08-25T01:16:39.373Z,19.35
2018-08-25T01:17:01.143Z,19.34
2018-08-25T01:17:22.925Z,19.35
2018-08-25T01:17:44.707Z,19.36
2018-08-25T01:18:06.641Z,19.36
2018-08-25T01:18:28.411Z,19.36
2018-08-25T01:18:50.170Z,19.35
2018-08-25T01:19:11.938Z,19.36
2018-08-25T01:19:33.720Z,19.36
2018-08-25T01:19:55.499Z,19.34
2018-08-25T01:20:17.260Z,19.34
2018-08-25T01:20:39.033Z,19.34
2018-08-25T01:21:00.809Z,19.35
2018-08-25T01:21:22.564Z,19.36
2018-08-25T01:21:44.375Z,19.35
2018-08-25T01:22:06.163Z,19.34
2018-08-25T01:22:27.923Z,19.34
2018-08-25T01:22:49.706Z,19.35
2018-08-25T01:23:11.491Z,19.35
2018-08-25T01:23:33.258Z,19.35
2018-08-25T01:23:55.048Z,19.38
2018-08-25T01:24:16.855Z,19.40
2018-08-25T01:24:38.647Z,19.39
2018-08-25T01:25:00.423Z,19.36
2018-08-25T01:25:22.180Z,19.35
2018-08-25T01:25:43.981Z,19.35
2018-08-25T01:26:05.778Z,19.35
2018-08-25T01:26:27.599Z,19.34
2018-08-25T01:26:49.411Z,19.36
2018-08-25T01:27:11.203Z,19.39
2018-08-25T01:27:33.759Z,19.37
2018-08-25T01:27:55.560Z,19.36
2018-08-25T01:28:17.344Z,19.38
2018-08-25T01:28:39.094Z,19.36
2018-08-25T01:29:00.891Z,19.34
2018-08-25T01:29:22.683Z,19.34
2018-08-25T01:29:44.448Z,19.33
2018-08-25T01:30:06.199Z,19.35
2018-08-25T01:30:27.959Z,19.33
2018-08-25T01:30:49.715Z,19.32
2018-08-25T01:31:11.467Z,19.31
2018-08-25T01:31:33.266Z,19.32
2018-08-25T01:31:55.091Z,19.32
2018-08-25T01:32:16.854Z,19.31
2018-08-25T01:32:38.643Z,19.30
2018-08-25T01:33:00.421Z,19.30
2018-08-25T01:33:22.188Z,19.29
2018-08-25T01:33:43.956Z,19.31
2018-08-25T01:34:05.741Z,19.29
2018-08-25T01:34:27.543Z,19.30
2018-08-25T01:34:49.326Z,19.29
2018-08-25T01:35:11.087Z,19.30
2018-08-25T01:35:32.877Z,19.30
2018-08-25T01:35:54.707Z,19.29
2018-08-25T01:36:16.483Z,19.28
2018-08-25T01:36:38.246Z,19.27
2018-08-25T01:37:00.050Z,19.25
2018-08-25T01:37:21.832Z,19.27
2018-08-25T01:37:43.612Z,19.27
2018-08-25T01:38:05.402Z,19.27
2018-08-25T01:38:27.171Z,19.26
2018-08-25T01:38:48.943Z,19.29
2018-08-25T01:39:10.702Z,19.27
2018-08-25T01:39:32.467Z,19.27
2018-08-25T01:39:54.234Z,19.27
2018-08-25T01:40:16.005Z,19.29
2018-08-25T01:40:37.750Z,19.32
2018-08-25T01:40:59.866Z,19.31
2018-08-25T01:41:21.642Z,19.30
2018-08-25T01:41:43.414Z,19.29
2018-08-25T01:42:05.170Z,19.28
2018-08-25T01:42:26.943Z,19.25
2018-08-25T01:42:48.744Z,19.26
2018-08-25T01:43:10.520Z,19.27
2018-08-25T01:43:32.289Z,19.27
2018-08-25T01:43:54.059Z,19.27
2018-08-25T01:44:15.830Z,19.29
2018-08-25T01:44:37.589Z,19.26
2018-08-25T01:44:59.336Z,19.27
2018-08-25T01:45:21.104Z,19.27
2018-08-25T01:45:42.890Z,19.27
2018-08-25T01:46:04.640Z,19.27
2018-08-25T01:46:26.404Z,19.25
2018-08-25T01:46:48.159Z,19.25
2018-08-25T01:47:09.951Z,19.26
2018-08-25T01:47:31.742Z,19.28
2018-08-25T01:47:53.495Z,19.27
2018-08-25T01:48:15.250Z,19.29
2018-08-25T01:48:37.020Z,19.29
2018-08-25T01:48:58.798Z,19.29
2018-08-25T01:49:20.555Z,19.29
2018-08-25T01:49:42.323Z,19.31
2018-08-25T01:50:04.097Z,19.29
2018-08-25T01:50:25.883Z,19.31
2018-08-25T01:50:47.648Z,19.31
2018-08-25T01:51:09.424Z,19.32
2018-08-25T01:51:31.196Z,19.29
2018-08-25T01:51:52.954Z,19.27
2018-08-25T01:52:14.747Z,19.27
2018-08-25T01:52:36.508Z,19.28
2018-08-25T01:52:58.266Z,19.26
2018-08-25T01:53:20.049Z,19.23
2018-08-25T01:53:41.814Z,19.21
2018-08-25T01:54:03.591Z,19.22
2018-08-25T01:54:25.369Z,19.26
2018-08-25T01:54:47.146Z,19.27
2018-08-25T01:55:09.078Z,19.27
2018-08-25T01:55:30.842Z,19.28
2018-08-25T01:55:52.608Z,19.27
2018-08-25T01:56:14.414Z,19.26
2018-08-25T01:56:36.207Z,19.25
2018-08-25T01:56:57.990Z,19.23
2018-08-25T01:57:19.776Z,19.27
2018-08-25T01:57:41.552Z,19.24
2018-08-25T01:58:03.320Z,19.24
2018-08-25T01:58:25.103Z,19.25
2018-08-25T01:58:46.862Z,19.23
2018-08-25T01:59:08.623Z,19.24
2018-08-25T01:59:30.400Z,19.27
2018-08-25T01:59:52.164Z,19.25
2018-08-25T02:00:13.936Z,19.24
2018-08-25T02:00:35.720Z,19.23
2018-08-25T02:00:57.498Z,19.22
2018-08-25T02:01:19.287Z,19.24
2018-08-25T02:01:41.051Z,19.24
2018-08-25T02:02:02.978Z,19.22
2018-08-25T02:07:19.823Z,19.24
2018-08-25T02:07:41.614Z,19.25
2018-08-25T02:08:04.760Z,19.24
2018-08-25T02:08:26.538Z,19.25
2018-08-25T02:08:48.301Z,19.23
2018-08-25T02:09:12.442Z,19.23
2018-08-25T02:09:34.242Z,19.23
2018-08-25T02:09:56.004Z,19.23
2018-08-25T02:10:17.775Z,19.23
2018-08-25T02:10:39.560Z,19.22
2018-08-25T02:11:01.319Z,19.25
2018-08-25T02:11:23.088Z,19.25
2018-08-25T02:11:44.839Z,19.24
2018-08-25T02:12:06.612Z,19.25
2018-08-25T02:12:28.376Z,19.26
2018-08-25T02:12:50.142Z,19.26
2018-08-25T02:13:11.935Z,19.24
2018-08-25T02:13:33.695Z,19.22
2018-08-25T02:13:55.484Z,19.21
2018-08-25T02:14:17.264Z,19.19
2018-08-25T02:14:39.040Z,19.19
2018-08-25T02:15:01.013Z,19.18
2018-08-25T02:15:22.793Z,19.21
2018-08-25T02:15:44.578Z,19.22
2018-08-25T02:16:06.346Z,19.24
2018-08-25T02:16:28.100Z,19.23
2018-08-25T02:16:49.862Z,19.23
2018-08-25T02:17:11.614Z,19.25
2018-08-25T02:17:33.408Z,19.24
2018-08-25T02:17:55.423Z,19.25
2018-08-25T02:18:17.208Z,19.25
2018-08-25T02:18:38.950Z,19.24
2018-08-25T02:19:00.731Z,19.26
2018-08-25T02:19:22.536Z,19.24
2018-08-25T02:19:44.283Z,19.24
2018-08-25T02:20:06.039Z,19.26
2018-08-25T02:20:27.795Z,19.24
2018-08-25T02:20:49.562Z,19.26
2018-08-25T02:21:11.323Z,19.26
2018-08-25T02:21:33.080Z,19.25
2018-08-25T02:21:54.834Z,19.26
2018-08-25T02:22:16.614Z,19.26
2018-08-25T02:22:38.380Z,19.24
2018-08-25T02:23:00.167Z,19.23
2018-08-25T02:23:21.948Z,19.21
2018-08-25T02:23:43.719Z,19.20
2018-08-25T02:24:05.738Z,19.19
2018-08-25T02:24:27.498Z,19.19
2018-08-25T02:24:49.268Z,19.19
2018-08-25T02:25:11.022Z,19.22
2018-08-25T02:25:32.783Z,19.22
2018-08-25T02:25:54.555Z,19.22
2018-08-25T02:26:16.325Z,19.22
2018-08-25T02:26:38.101Z,19.24
2018-08-25T02:26:59.861Z,19.23
2018-08-25T02:27:21.632Z,19.23
2018-08-25T02:27:43.389Z,19.22
2018-08-25T02:28:05.178Z,19.23
2018-08-25T02:28:26.946Z,19.22
2018-08-25T02:28:48.727Z,19.22
2018-08-25T02:29:10.505Z,19.21
2018-08-25T02:29:32.315Z,19.21
2018-08-25T02:29:54.086Z,19.22
2018-08-25T02:30:16.053Z,19.19
2018-08-25T02:30:37.811Z,19.21
2018-08-25T02:30:59.585Z,19.22
2018-08-25T02:31:21.356Z,19.22
2018-08-25T02:31:43.122Z,19.23
2018-08-25T02:32:04.907Z,19.25
2018-08-25T02:32:26.687Z,19.21
2018-08-25T02:32:48.482Z,19.22
2018-08-25T02:33:10.306Z,19.24
2018-08-25T02:33:32.080Z,19.27
2018-08-25T02:33:53.870Z,19.24
2018-08-25T02:34:15.638Z,19.22
2018-08-25T02:34:37.412Z,19.23
2018-08-25T02:34:59.190Z,19.22
2018-08-25T02:35:20.949Z,19.22
2018-08-25T02:35:42.710Z,19.23
2018-08-25T02:36:04.479Z,19.27
2018-08-25T02:36:26.251Z,19.25
2018-08-25T02:36:48.064Z,19.27
2018-08-25T02:37:09.850Z,19.27
2018-08-25T02:37:31.621Z,19.25
2018-08-25T02:37:53.388Z,19.25
2018-08-25T02:38:15.162Z,19.25
2018-08-25T02:38:36.976Z,19.25
2018-08-25T02:38:58.719Z,19.24
2018-08-25T02:39:20.470Z,19.22
2018-08-25T02:39:42.260Z,19.20
2018-08-25T02:40:04.028Z,19.21
2018-08-25T02:40:25.817Z,19.21
2018-08-25T02:40:47.594Z,19.20
2018-08-25T02:41:09.405Z,19.19
2018-08-25T02:41:31.160Z,19.18
2018-08-25T02:41:52.935Z,19.19
2018-08-25T02:42:14.725Z,19.18
2018-08-25T02:42:36.503Z,19.21
2018-08-25T02:42:58.258Z,19.21
2018-08-25T02:43:20.069Z,19.23
2018-08-25T02:43:41.836Z,19.25
2018-08-25T02:44:03.614Z,19.26
2018-08-25T02:44:25.392Z,19.26
2018-08-25T02:44:47.148Z,19.24
2018-08-25T02:45:08.939Z,19.22
2018-08-25T02:45:30.725Z,19.22
2018-08-25T02:45:52.511Z,19.22
2018-08-25T02:46:14.291Z,19.24
2018-08-25T02:46:36.063Z,19.23
2018-08-25T02:46:57.827Z,19.26
2018-08-25T02:47:19.738Z,19.26
2018-08-25T02:47:41.508Z,19.26
2018-08-25T02:48:03.275Z,19.27
2018-08-25T02:48:25.079Z,19.25
2018-08-25T02:48:46.837Z,19.23
2018-08-25T02:49:08.630Z,19.24
2018-08-25T02:49:30.415Z,19.24
2018-08-25T02:49:52.171Z,19.23
2018-08-25T02:50:13.968Z,19.24
2018-08-25T02:50:35.781Z,19.22
2018-08-25T02:50:57.560Z,19.25
2018-08-25T02:51:19.343Z,19.26
2018-08-25T02:51:41.121Z,19.24
2018-08-25T02:52:02.891Z,19.22
2018-08-25T02:52:24.678Z,19.22
2018-08-25T02:52:46.446Z,19.22
2018-08-25T02:53:08.246Z,19.23
2018-08-25T02:53:30.035Z,19.21
2018-08-25T02:53:51.786Z,19.23
2018-08-25T02:54:13.561Z,19.26
2018-08-25T02:54:35.340Z,19.25
2018-08-25T02:54:57.118Z,19.25
2018-08-25T02:55:18.918Z,19.26
2018-08-25T02:55:40.698Z,19.27
2018-08-25T02:56:02.489Z,19.26
2018-08-25T02:56:24.258Z,19.24
2018-08-25T02:56:46.027Z,19.25
2018-08-25T02:57:07.783Z,19.26
2018-08-25T02:57:29.584Z,19.24
2018-08-25T02:57:51.432Z,19.24
2018-08-25T02:58:13.202Z,19.21
2018-08-25T02:58:35.016Z,19.20
2018-08-25T02:58:56.835Z,19.19
2018-08-25T02:59:18.611Z,19.18
2018-08-25T02:59:40.396Z,19.21
2018-08-25T03:00:02.175Z,19.20
2018-08-25T03:00:23.973Z,19.20
2018-08-25T03:00:45.751Z,19.21
2018-08-25T03:01:08.413Z,19.24
2018-08-25T03:01:30.193Z,19.23
2018-08-25T03:01:51.974Z,19.21
2018-08-25T03:02:13.763Z,19.22
2018-08-25T03:02:35.529Z,19.20
2018-08-25T03:02:57.281Z,19.20
2018-08-25T03:03:19.430Z,19.20
2018-08-25T03:03:41.243Z,19.18
2018-08-25T03:04:03.052Z,19.19
2018-08-25T03:04:24.824Z,19.22
2018-08-25T03:04:46.604Z,19.20
2018-08-25T03:05:08.354Z,19.20
2018-08-25T03:05:30.124Z,19.18
2018-08-25T03:05:51.879Z,19.19
2018-08-25T03:06:13.639Z,19.18
2018-08-25T03:06:35.392Z,19.18
2018-08-25T03:06:57.159Z,19.16
2018-08-25T03:07:18.923Z,19.13
2018-08-25T03:07:40.682Z,19.14
2018-08-25T03:08:02.443Z,19.16
2018-08-25T03:08:24.252Z,19.17
2018-08-25T03:08:46.047Z,19.15
2018-08-25T03:09:07.824Z,19.15
2018-08-25T03:09:29.574Z,19.13
2018-08-25T03:09:51.349Z,19.13
2018-08-25T03:10:13.104Z,19.11
2018-08-25T03:10:34.898Z,19.12
2018-08-25T03:10:56.675Z,19.13
2018-08-25T03:11:18.432Z,19.14
2018-08-25T03:11:40.242Z,19.13
2018-08-25T03:12:02.016Z,19.13
2018-08-25T03:12:23.793Z,19.12
2018-08-25T03:12:45.581Z,19.12
2018-08-25T03:13:07.372Z,19.12
2018-08-25T03:13:29.151Z,19.15
2018-08-25T03:13:50.969Z,19.13
2018-08-25T03:14:12.715Z,19.18
2018-08-25T03:14:34.530Z,19.18
2018-08-25T03:14:56.331Z,19.16
2018-08-25T03:15:18.109Z,19.16
2018-08-25T03:15:39.860Z,19.16
2018-08-25T03:16:01.625Z,19.16
2018-08-25T03:16:23.381Z,19.13
2018-08-25T03:16:45.182Z,19.14
2018-08-25T03:17:06.994Z,19.16
2018-08-25T03:17:28.766Z,19.16
2018-08-25T03:17:50.515Z,19.19
2018-08-25T03:18:12.331Z,19.18
2018-08-25T03:18:34.108Z,19.19
2018-08-25T03:18:55.961Z,19.18
2018-08-25T03:19:17.697Z,19.16
2018-08-25T03:19:39.480Z,19.16
2018-08-25T03:20:01.243Z,19.16
2018-08-25T03:20:23.020Z,19.16
2018-08-25T03:20:44.813Z,19.21
2018-08-25T03:21:06.746Z,19.19
2018-08-25T03:21:28.521Z,19.18
2018-08-25T03:21:50.299Z,19.15
2018-08-25T03:22:12.066Z,19.13
2018-08-25T03:22:33.833Z,19.13
2018-08-25T03:22:55.567Z,19.13
2018-08-25T03:23:17.346Z,19.12
2018-08-25T03:23:39.094Z,19.11
2018-08-25T03:24:00.898Z,19.10
2018-08-25T03:24:22.673Z,19.09
2018-08-25T03:24:44.440Z,19.09
2018-08-25T03:25:06.190Z,19.08
2018-08-25T03:25:27.959Z,19.08
2018-08-25T03:25:49.751Z,19.10
2018-08-25T03:26:11.526Z,19.12
2018-08-25T03:26:33.281Z,19.13
2018-08-25T03:26:55.077Z,19.13
2018-08-25T03:27:16.856Z,19.11
2018-08-25T03:27:38.605Z,19.11
2018-08-25T03:28:00.419Z,19.08
2018-08-25T03:28:22.186Z,19.09
2018-08-25T03:28:43.951Z,19.08
2018-08-25T03:29:05.752Z,19.07
2018-08-25T03:29:27.529Z,19.06
2018-08-25T03:29:49.280Z,19.05
2018-08-25T03:30:11.043Z,19.07
2018-08-25T03:30:32.823Z,19.07
2018-08-25T03:30:54.593Z,19.04
2018-08-25T03:31:16.376Z,19.04
2018-08-25T03:31:38.187Z,19.03
2018-08-25T03:31:59.948Z,19.02
2018-08-25T03:32:21.712Z,19.02
2018-08-25T03:32:43.459Z,19.03
2018-08-25T03:33:05.237Z,19.05
2018-08-25T03:33:26.986Z,19.04
2018-08-25T03:33:48.774Z,19.06
2018-08-25T03:34:10.581Z,19.06
2018-08-25T03:34:32.342Z,19.07
2018-08-25T03:34:54.124Z,19.08
2018-08-25T03:35:15.890Z,19.09
2018-08-25T03:35:37.726Z,19.09
2018-08-25T03:35:59.490Z,19.09
2018-08-25T03:36:21.268Z,19.09
2018-08-25T03:36:43.062Z,19.09
2018-08-25T03:37:04.861Z,19.08
2018-08-25T03:37:26.628Z,19.09
2018-08-25T03:37:48.391Z,19.08
2018-08-25T03:38:10.202Z,19.06
2018-08-25T03:38:31.980Z,19.06
2018-08-25T03:38:53.747Z,19.08
2018-08-25T03:39:15.527Z,19.07
2018-08-25T03:39:37.294Z,19.07
2018-08-25T03:39:59.072Z,19.07
2018-08-25T03:40:20.843Z,19.05
2018-08-25T03:40:42.603Z,19.06
2018-08-25T03:41:04.369Z,19.07
2018-08-25T03:41:26.147Z,19.07
2018-08-25T03:41:47.926Z,19.07
2018-08-25T03:42:09.699Z,19.07
2018-08-25T03:42:31.481Z,19.08
2018-08-25T03:42:53.254Z,19.09
2018-08-25T03:43:15.062Z,19.09
2018-08-25T03:43:36.843Z,19.07
2018-08-25T03:43:58.621Z,19.09
2018-08-25T03:44:20.432Z,19.08
2018-08-25T03:44:42.210Z,19.09
2018-08-25T03:45:03.981Z,19.08
2018-08-25T03:45:25.765Z,19.07
2018-08-25T03:45:47.537Z,19.06
2018-08-25T03:46:09.309Z,19.06
2018-08-25T03:46:31.262Z,19.07
2018-08-25T03:46:53.038Z,19.07
2018-08-25T03:47:14.797Z,19.03
2018-08-25T03:47:36.583Z,19.05
2018-08-25T03:47:58.395Z,19.02
2018-08-25T03:48:20.175Z,19.03
2018-08-25T03:48:41.964Z,19.02
2018-08-25T03:49:03.743Z,19.02
2018-08-25T03:49:25.549Z,19.03
2018-08-25T03:49:47.358Z,19.02
2018-08-25T03:50:09.159Z,19.02
2018-08-25T03:50:30.948Z,19.02
2018-08-25T03:50:52.728Z,19.02
2018-08-25T03:51:14.506Z,19.01
2018-08-25T03:51:36.455Z,19.02
2018-08-25T03:51:58.234Z,19.02
2018-08-25T03:52:20.035Z,19.03
2018-08-25T03:52:41.811Z,19.05
2018-08-25T03:53:03.600Z,19.05
2018-08-25T03:53:25.397Z,19.04
2018-08-25T03:53:47.181Z,19.05
2018-08-25T03:54:08.991Z,19.04
2018-08-25T03:54:30.810Z,19.03
2018-08-25T03:54:52.610Z,19.01
2018-08-25T03:55:14.453Z,19.00
2018-08-25T03:55:36.307Z,19.01
2018-08-25T03:55:58.091Z,18.99
2018-08-25T03:56:19.883Z,18.98
2018-08-25T03:56:41.672Z,18.96
2018-08-25T03:57:03.600Z,18.97
2018-08-25T03:57:25.391Z,18.97
2018-08-25T03:57:47.170Z,18.97
2018-08-25T03:58:08.954Z,18.98
2018-08-25T03:58:30.738Z,18.99
2018-08-25T03:58:52.540Z,18.97
2018-08-25T03:59:14.327Z,18.98
2018-08-25T03:59:36.138Z,18.98
2018-08-25T03:59:57.916Z,18.98
2018-08-25T04:00:19.676Z,19.00
2018-08-25T04:00:41.451Z,19.00
2018-08-25T04:01:03.244Z,19.00
2018-08-25T04:01:25.035Z,18.99
2018-08-25T04:01:46.817Z,19.00
2018-08-25T04:02:08.607Z,19.03
2018-08-25T04:02:30.354Z,19.02
2018-08-25T04:02:52.251Z,19.03
2018-08-25T04:03:14.027Z,19.02
2018-08-25T04:03:35.829Z,19.00
2018-08-25T04:03:57.604Z,19.00
2018-08-25T04:04:19.392Z,19.00
2018-08-25T04:04:41.203Z,19.01
2018-08-25T04:05:02.992Z,19.03
2018-08-25T04:05:24.746Z,19.01
2018-08-25T04:05:46.530Z,19.04
2018-08-25T04:06:08.314Z,19.02
2018-08-25T04:06:30.085Z,18.99
2018-08-25T04:06:51.842Z,18.99
2018-08-25T04:07:13.599Z,19.00
2018-08-25T04:07:35.400Z,18.96
2018-08-25T04:07:57.180Z,18.95
2018-08-25T04:08:18.948Z,18.96
2018-08-25T04:08:40.726Z,18.96
2018-08-25T04:09:02.488Z,19.01
2018-08-25T04:09:24.244Z,18.99
2018-08-25T04:09:46.055Z,19.01
2018-08-25T04:10:07.864Z,19.00
2018-08-25T04:10:29.668Z,19.03
2018-08-25T04:10:51.433Z,19.00
2018-08-25T04:11:13.193Z,19.03
2018-08-25T04:11:34.972Z,19.01
2018-08-25T04:11:56.764Z,18.99
2018-08-25T04:12:18.518Z,18.96
2018-08-25T04:12:40.284Z,18.97
2018-08-25T04:13:02.052Z,18.95
2018-08-25T04:13:23.822Z,18.96
2018-08-25T04:13:45.594Z,18.95
2018-08-25T04:14:08.192Z,18.95
2018-08-25T04:14:29.956Z,18.93
2018-08-25T04:14:51.888Z,18.94
2018-08-25T04:15:13.552Z,18.92
2018-08-25T04:15:35.337Z,18.93
2018-08-25T04:15:57.101Z,18.92
2018-08-25T04:16:18.866Z,18.92
2018-08-25T04:16:40.640Z,18.93
2018-08-25T04:17:02.408Z,18.96
2018-08-25T04:17:24.183Z,18.94
2018-08-25T04:17:45.930Z,18.95
2018-08-25T04:18:07.703Z,18.95
2018-08-25T04:18:29.465Z,18.93
2018-08-25T04:18:51.252Z,18.93
2018-08-25T04:19:18.195Z,18.93
2018-08-25T04:19:39.956Z,18.95
2018-08-25T04:20:01.775Z,18.94
2018-08-25T04:20:23.523Z,18.93
2018-08-25T04:20:45.297Z,18.94
2018-08-25T04:22:10.626Z,18.95
2018-08-25T04:22:32.390Z,18.90
2018-08-25T04:22:54.149Z,18.90
2018-08-25T04:23:15.912Z,18.89
2018-08-25T04:23:37.692Z,18.88
2018-08-25T04:23:59.640Z,18.89
2018-08-25T04:24:21.387Z,18.88
2018-08-25T04:24:43.176Z,18.89
2018-08-25T04:25:04.980Z,18.90
2018-08-25T04:25:26.754Z,18.90
2018-08-25T04:25:48.519Z,18.90
2018-08-25T04:26:10.276Z,18.90
2018-08-25T04:26:32.046Z,18.91
2018-08-25T04:26:53.831Z,18.94
2018-08-25T04:27:15.595Z,18.92
2018-08-25T04:27:37.358Z,18.94
2018-08-25T04:27:59.100Z,18.94
2018-08-25T04:28:20.872Z,18.92
2018-08-25T04:28:42.644Z,18.92
2018-08-25T04:29:04.411Z,18.92
2018-08-25T04:29:26.179Z,18.93
2018-08-25T04:29:47.934Z,18.95
2018-08-25T04:30:09.722Z,18.96
2018-08-25T04:30:31.493Z,18.97
2018-08-25T04:30:53.284Z,18.96
2018-08-25T04:31:15.056Z,18.95
2018-08-25T04:31:36.819Z,18.94
2018-08-25T04:31:58.616Z,18.94
2018-08-25T04:32:20.384Z,18.94
2018-08-25T04:32:42.157Z,18.94
2018-08-25T04:33:03.932Z,18.93
2018-08-25T04:33:25.768Z,18.93
2018-08-25T04:33:47.530Z,18.93
2018-08-25T04:34:09.300Z,18.95
2018-08-25T04:34:31.070Z,18.92
2018-08-25T04:34:52.856Z,18.92
2018-08-25T04:35:14.632Z,18.92
2018-08-25T04:35:36.402Z,18.91
2018-08-25T04:35:58.168Z,18.90
2018-08-25T04:36:19.964Z,18.89
2018-08-25T04:36:41.729Z,18.88
2018-08-25T04:37:03.501Z,18.88
2018-08-25T04:37:25.295Z,18.84
2018-08-25T04:37:47.065Z,18.86
2018-08-25T04:38:08.833Z,18.87
2018-08-25T04:38:30.604Z,18.89
2018-08-25T04:38:52.389Z,18.88
2018-08-25T04:39:14.163Z,18.88
2018-08-25T04:39:35.927Z,18.88
2018-08-25T04:39:57.700Z,18.90
2018-08-25T04:40:19.453Z,18.90
2018-08-25T04:40:41.222Z,18.89
2018-08-25T04:41:02.993Z,18.92
2018-08-25T04:41:24.771Z,18.94
2018-08-25T04:41:46.505Z,18.93
2018-08-25T04:42:08.273Z,18.93
2018-08-25T04:42:30.036Z,18.91
2018-08-25T04:42:51.832Z,18.91
2018-08-25T04:43:13.593Z,18.90
2018-08-25T04:43:35.366Z,18.90
2018-08-25T04:43:57.133Z,18.91
2018-08-25T04:44:18.895Z,18.92
2018-08-25T04:44:40.670Z,18.93
2018-08-25T04:45:02.465Z,18.92
2018-08-25T04:45:24.277Z,18.92
2018-08-25T04:45:46.048Z,18.92
2018-08-25T04:46:07.810Z,18.91
2018-08-25T04:46:29.583Z,18.92
2018-08-25T04:46:51.347Z,18.92